sensor_id;sensor_type;location;lat;lon;timestamp;P1;durP1;ratioP1;P2;durP2;ratioP2
75820;SDS011;64454;51.984;9.838;2022-12-24T00:01:37;8.85;;;6.35;;
75820;SDS011;64454;51.984;9.838;2022-12-24T00:04:04;10.98;;;6.70;;
75820;SDS011;64454;51.984;9.838;2022-12-24T00:06:33;12.70;;;7.32;;
75820;SDS011;64454;51.984;9.838;2022-12-24T00:09:00;9.15;;;6.53;;
75820;SDS011;64454;51.984;9.838;2022-12-24T00:11:28;8.65;;;6.72;;
75820;SDS011;64454;51.984;9.838;2022-12-24T00:13:54;10.70;;;6.60;;
75820;SDS011;64454;51.984;9.838;2022-12-24T00:16:21;7.50;;;5.60;;
75820;SDS011;64454;51.984;9.838;2022-12-24T00:18:48;7.72;;;4.50;;
75820;SDS011;64454;51.984;9.838;2022-12-24T00:21:15;8.18;;;5.47;;
75820;SDS011;64454;51.984;9.838;2022-12-24T00:23:43;8.57;;;4.70;;
75820;SDS011;64454;51.984;9.838;2022-12-24T00:26:11;7.80;;;4.00;;
75820;SDS011;64454;51.984;9.838;2022-12-24T00:28:38;7.90;;;4.00;;
75820;SDS011;64454;51.984;9.838;2022-12-24T00:31:06;7.25;;;4.10;;
75820;SDS011;64454;51.984;9.838;2022-12-24T00:33:38;6.60;;;3.90;;
75820;SDS011;64454;51.984;9.838;2022-12-24T00:36:07;6.22;;;3.78;;
75820;SDS011;64454;51.984;9.838;2022-12-24T00:38:34;4.65;;;2.40;;
75820;SDS011;64454;51.984;9.838;2022-12-24T00:41:03;3.50;;;2.22;;
75820;SDS011;64454;51.984;9.838;2022-12-24T00:43:48;3.63;;;2.20;;
75820;SDS011;64454;51.984;9.838;2022-12-24T00:46:15;4.95;;;2.70;;
75820;SDS011;64454;51.984;9.838;2022-12-24T00:48:42;3.53;;;2.40;;
75820;SDS011;64454;51.984;9.838;2022-12-24T00:51:09;3.28;;;2.58;;
75820;SDS011;64454;51.984;9.838;2022-12-24T00:53:36;3.40;;;2.15;;
75820;SDS011;64454;51.984;9.838;2022-12-24T00:56:05;4.10;;;2.38;;
75820;SDS011;64454;51.984;9.838;2022-12-24T00:58:33;4.32;;;2.40;;
75820;SDS011;64454;51.984;9.838;2022-12-24T01:01:00;4.80;;;2.78;;
75820;SDS011;64454;51.984;9.838;2022-12-24T01:03:27;3.47;;;2.30;;
75820;SDS011;64454;51.984;9.838;2022-12-24T01:06:00;3.00;;;1.90;;
75820;SDS011;64454;51.984;9.838;2022-12-24T01:08:26;3.30;;;2.00;;
75820;SDS011;64454;51.984;9.838;2022-12-24T01:10:53;4.90;;;2.50;;
75820;SDS011;64454;51.984;9.838;2022-12-24T01:13:21;5.15;;;2.53;;
75820;SDS011;64454;51.984;9.838;2022-12-24T01:15:48;4.33;;;2.20;;
75820;SDS011;64454;51.984;9.838;2022-12-24T01:18:15;3.10;;;2.47;;
75820;SDS011;64454;51.984;9.838;2022-12-24T01:20:42;3.28;;;2.10;;
75820;SDS011;64454;51.984;9.838;2022-12-24T01:23:09;4.47;;;2.50;;
75820;SDS011;64454;51.984;9.838;2022-12-24T01:25:36;4.03;;;2.10;;
75820;SDS011;64454;51.984;9.838;2022-12-24T01:28:04;6.47;;;1.98;;
75820;SDS011;64454;51.984;9.838;2022-12-24T01:30:32;5.93;;;2.20;;
75820;SDS011;64454;51.984;9.838;2022-12-24T01:32:59;4.25;;;2.20;;
75820;SDS011;64454;51.984;9.838;2022-12-24T01:35:25;2.50;;;1.60;;
75820;SDS011;64454;51.984;9.838;2022-12-24T01:37:52;3.90;;;2.17;;
75820;SDS011;64454;51.984;9.838;2022-12-24T01:40:19;2.75;;;1.70;;
75820;SDS011;64454;51.984;9.838;2022-12-24T01:43:04;4.80;;;1.80;;
75820;SDS011;64454;51.984;9.838;2022-12-24T01:45:54;5.18;;;2.15;;
75820;SDS011;64454;51.984;9.838;2022-12-24T01:48:30;4.68;;;1.90;;
75820;SDS011;64454;51.984;9.838;2022-12-24T01:51:03;4.15;;;1.50;;
75820;SDS011;64454;51.984;9.838;2022-12-24T01:53:42;2.47;;;1.63;;
75820;SDS011;64454;51.984;9.838;2022-12-24T01:56:14;3.20;;;1.20;;
75820;SDS011;64454;51.984;9.838;2022-12-24T01:58:45;2.03;;;1.30;;
75820;SDS011;64454;51.984;9.838;2022-12-24T02:01:18;5.65;;;1.60;;
75820;SDS011;64454;51.984;9.838;2022-12-24T02:03:45;3.42;;;1.50;;
75820;SDS011;64454;51.984;9.838;2022-12-24T02:06:12;2.80;;;1.40;;
75820;SDS011;64454;51.984;9.838;2022-12-24T02:08:42;3.13;;;1.20;;
75820;SDS011;64454;51.984;9.838;2022-12-24T02:11:10;3.92;;;1.63;;
75820;SDS011;64454;51.984;9.838;2022-12-24T02:13:40;7.60;;;1.70;;
75820;SDS011;64454;51.984;9.838;2022-12-24T02:16:13;4.83;;;1.20;;
75820;SDS011;64454;51.984;9.838;2022-12-24T02:18:56;4.88;;;1.52;;
75820;SDS011;64454;51.984;9.838;2022-12-24T02:21:42;3.45;;;1.67;;
75820;SDS011;64454;51.984;9.838;2022-12-24T02:24:20;2.42;;;1.42;;
75820;SDS011;64454;51.984;9.838;2022-12-24T02:27:10;3.67;;;1.60;;
75820;SDS011;64454;51.984;9.838;2022-12-24T02:32:52;2.70;;;1.20;;
75820;SDS011;64454;51.984;9.838;2022-12-24T02:35:35;3.20;;;1.10;;
75820;SDS011;64454;51.984;9.838;2022-12-24T02:38:12;2.20;;;1.20;;
75820;SDS011;64454;51.984;9.838;2022-12-24T02:40:46;3.05;;;1.30;;
75820;SDS011;64454;51.984;9.838;2022-12-24T02:43:18;2.40;;;1.40;;
75820;SDS011;64454;51.984;9.838;2022-12-24T02:45:52;3.17;;;1.60;;
75820;SDS011;64454;51.984;9.838;2022-12-24T02:48:24;3.28;;;1.60;;
75820;SDS011;64454;51.984;9.838;2022-12-24T02:50:55;6.10;;;2.10;;
75820;SDS011;64454;51.984;9.838;2022-12-24T02:53:24;2.55;;;1.48;;
75820;SDS011;64454;51.984;9.838;2022-12-24T02:55:54;5.65;;;1.70;;
75820;SDS011;64454;51.984;9.838;2022-12-24T02:58:41;5.57;;;2.00;;
75820;SDS011;64454;51.984;9.838;2022-12-24T03:01:27;4.00;;;1.70;;
75820;SDS011;64454;51.984;9.838;2022-12-24T03:04:08;4.45;;;1.63;;
75820;SDS011;64454;51.984;9.838;2022-12-24T03:06:48;6.00;;;1.73;;
75820;SDS011;64454;51.984;9.838;2022-12-24T03:09:24;4.43;;;1.77;;
75820;SDS011;64454;51.984;9.838;2022-12-24T03:11:58;8.20;;;2.20;;
75820;SDS011;64454;51.984;9.838;2022-12-24T03:14:31;8.98;;;2.20;;
75820;SDS011;64454;51.984;9.838;2022-12-24T03:17:01;8.20;;;2.40;;
75820;SDS011;64454;51.984;9.838;2022-12-24T03:19:29;7.85;;;2.75;;
75820;SDS011;64454;51.984;9.838;2022-12-24T03:21:58;7.38;;;2.55;;
75820;SDS011;64454;51.984;9.838;2022-12-24T03:24:28;5.75;;;2.30;;
75820;SDS011;64454;51.984;9.838;2022-12-24T03:26:55;8.38;;;2.90;;
75820;SDS011;64454;51.984;9.838;2022-12-24T03:29:24;7.97;;;3.40;;
75820;SDS011;64454;51.984;9.838;2022-12-24T03:31:51;6.50;;;2.70;;
75820;SDS011;64454;51.984;9.838;2022-12-24T03:34:27;11.90;;;3.67;;
75820;SDS011;64454;51.984;9.838;2022-12-24T03:36:54;9.30;;;3.30;;
75820;SDS011;64454;51.984;9.838;2022-12-24T03:39:21;7.80;;;2.92;;
75820;SDS011;64454;51.984;9.838;2022-12-24T03:41:48;8.02;;;3.20;;
75820;SDS011;64454;51.984;9.838;2022-12-24T03:44:15;6.97;;;3.38;;
75820;SDS011;64454;51.984;9.838;2022-12-24T03:46:42;8.57;;;3.70;;
75820;SDS011;64454;51.984;9.838;2022-12-24T03:49:09;10.93;;;3.60;;
75820;SDS011;64454;51.984;9.838;2022-12-24T03:51:37;15.18;;;4.47;;
75820;SDS011;64454;51.984;9.838;2022-12-24T03:54:04;11.47;;;4.37;;
75820;SDS011;64454;51.984;9.838;2022-12-24T03:56:31;11.60;;;4.00;;
75820;SDS011;64454;51.984;9.838;2022-12-24T03:58:58;9.95;;;5.05;;
75820;SDS011;64454;51.984;9.838;2022-12-24T04:01:24;9.25;;;4.03;;
75820;SDS011;64454;51.984;9.838;2022-12-24T04:03:51;11.93;;;4.68;;
75820;SDS011;64454;51.984;9.838;2022-12-24T04:06:18;9.00;;;4.80;;
75820;SDS011;64454;51.984;9.838;2022-12-24T04:08:46;10.38;;;4.75;;
75820;SDS011;64454;51.984;9.838;2022-12-24T04:11:14;10.75;;;5.43;;
75820;SDS011;64454;51.984;9.838;2022-12-24T04:13:42;11.70;;;5.05;;
75820;SDS011;64454;51.984;9.838;2022-12-24T04:16:09;10.32;;;5.25;;
75820;SDS011;64454;51.984;9.838;2022-12-24T04:18:38;8.07;;;4.90;;
75820;SDS011;64454;51.984;9.838;2022-12-24T04:21:06;9.50;;;5.22;;
75820;SDS011;64454;51.984;9.838;2022-12-24T04:23:34;11.73;;;5.20;;
75820;SDS011;64454;51.984;9.838;2022-12-24T04:26:05;11.43;;;5.68;;
75820;SDS011;64454;51.984;9.838;2022-12-24T04:28:34;8.88;;;4.95;;
75820;SDS011;64454;51.984;9.838;2022-12-24T04:31:03;10.38;;;5.15;;
75820;SDS011;64454;51.984;9.838;2022-12-24T04:33:33;8.43;;;4.13;;
75820;SDS011;64454;51.984;9.838;2022-12-24T04:36:02;9.70;;;4.63;;
75820;SDS011;64454;51.984;9.838;2022-12-24T04:38:32;7.17;;;3.83;;
75820;SDS011;64454;51.984;9.838;2022-12-24T04:41:00;9.02;;;3.45;;
75820;SDS011;64454;51.984;9.838;2022-12-24T04:43:30;7.82;;;3.35;;
75820;SDS011;64454;51.984;9.838;2022-12-24T04:46:02;10.50;;;3.53;;
75820;SDS011;64454;51.984;9.838;2022-12-24T04:48:30;9.80;;;3.83;;
75820;SDS011;64454;51.984;9.838;2022-12-24T04:50:59;9.88;;;3.45;;
75820;SDS011;64454;51.984;9.838;2022-12-24T04:53:28;9.43;;;3.72;;
75820;SDS011;64454;51.984;9.838;2022-12-24T04:55:55;11.63;;;4.00;;
75820;SDS011;64454;51.984;9.838;2022-12-24T04:58:23;13.35;;;4.22;;
75820;SDS011;64454;51.984;9.838;2022-12-24T05:00:51;12.80;;;3.87;;
75820;SDS011;64454;51.984;9.838;2022-12-24T05:03:19;11.02;;;3.67;;
75820;SDS011;64454;51.984;9.838;2022-12-24T05:05:46;11.18;;;3.80;;
75820;SDS011;64454;51.984;9.838;2022-12-24T05:08:12;12.73;;;4.32;;
75820;SDS011;64454;51.984;9.838;2022-12-24T05:10:39;15.15;;;4.60;;
75820;SDS011;64454;51.984;9.838;2022-12-24T05:13:06;12.15;;;3.72;;
75820;SDS011;64454;51.984;9.838;2022-12-24T05:15:33;10.70;;;4.75;;
75820;SDS011;64454;51.984;9.838;2022-12-24T05:18:01;14.77;;;4.95;;
75820;SDS011;64454;51.984;9.838;2022-12-24T05:20:28;15.82;;;5.30;;
75820;SDS011;64454;51.984;9.838;2022-12-24T05:22:55;13.85;;;5.97;;
75820;SDS011;64454;51.984;9.838;2022-12-24T05:25:39;15.80;;;6.03;;
75820;SDS011;64454;51.984;9.838;2022-12-24T05:28:24;18.00;;;5.80;;
75820;SDS011;64454;51.984;9.838;2022-12-24T05:30:51;14.40;;;5.57;;
75820;SDS011;64454;51.984;9.838;2022-12-24T05:33:19;17.13;;;6.18;;
75820;SDS011;64454;51.984;9.838;2022-12-24T05:35:46;16.27;;;5.97;;
75820;SDS011;64454;51.984;9.838;2022-12-24T05:38:12;19.00;;;6.55;;
75820;SDS011;64454;51.984;9.838;2022-12-24T05:40:39;15.13;;;7.07;;
75820;SDS011;64454;51.984;9.838;2022-12-24T05:43:06;12.38;;;5.90;;
75820;SDS011;64454;51.984;9.838;2022-12-24T05:45:33;16.67;;;6.53;;
75820;SDS011;64454;51.984;9.838;2022-12-24T05:47:59;14.80;;;5.60;;
75820;SDS011;64454;51.984;9.838;2022-12-24T05:50:27;12.35;;;6.32;;
75820;SDS011;64454;51.984;9.838;2022-12-24T05:52:54;16.02;;;6.05;;
75820;SDS011;64454;51.984;9.838;2022-12-24T05:55:21;12.65;;;5.93;;
75820;SDS011;64454;51.984;9.838;2022-12-24T05:57:48;12.43;;;5.32;;
75820;SDS011;64454;51.984;9.838;2022-12-24T06:00:16;11.50;;;5.72;;
75820;SDS011;64454;51.984;9.838;2022-12-24T06:02:44;12.13;;;5.50;;
75820;SDS011;64454;51.984;9.838;2022-12-24T06:05:31;14.52;;;6.00;;
75820;SDS011;64454;51.984;9.838;2022-12-24T06:08:18;17.70;;;6.57;;
75820;SDS011;64454;51.984;9.838;2022-12-24T06:11:06;17.75;;;6.63;;
75820;SDS011;64454;51.984;9.838;2022-12-24T06:13:56;18.67;;;6.83;;
75820;SDS011;64454;51.984;9.838;2022-12-24T06:16:25;16.38;;;6.10;;
75820;SDS011;64454;51.984;9.838;2022-12-24T06:18:52;12.35;;;6.60;;
75820;SDS011;64454;51.984;9.838;2022-12-24T06:21:20;23.40;;;7.32;;
75820;SDS011;64454;51.984;9.838;2022-12-24T06:23:47;16.25;;;7.10;;
75820;SDS011;64454;51.984;9.838;2022-12-24T06:26:16;12.48;;;6.10;;
75820;SDS011;64454;51.984;9.838;2022-12-24T06:28:45;17.73;;;5.90;;
75820;SDS011;64454;51.984;9.838;2022-12-24T06:31:14;15.10;;;6.75;;
75820;SDS011;64454;51.984;9.838;2022-12-24T06:33:43;17.58;;;6.32;;
75820;SDS011;64454;51.984;9.838;2022-12-24T06:36:12;17.38;;;6.68;;
75820;SDS011;64454;51.984;9.838;2022-12-24T06:38:43;17.92;;;6.90;;
75820;SDS011;64454;51.984;9.838;2022-12-24T06:41:10;19.02;;;6.60;;
75820;SDS011;64454;51.984;9.838;2022-12-24T06:43:38;13.95;;;6.07;;
75820;SDS011;64454;51.984;9.838;2022-12-24T06:46:08;18.42;;;6.18;;
75820;SDS011;64454;51.984;9.838;2022-12-24T06:48:34;13.40;;;6.38;;
75820;SDS011;64454;51.984;9.838;2022-12-24T06:51:01;22.50;;;6.78;;
75820;SDS011;64454;51.984;9.838;2022-12-24T06:53:29;18.83;;;7.17;;
75820;SDS011;64454;51.984;9.838;2022-12-24T06:56:01;18.38;;;7.00;;
75820;SDS011;64454;51.984;9.838;2022-12-24T06:58:29;13.95;;;6.20;;
75820;SDS011;64454;51.984;9.838;2022-12-24T07:00:57;17.17;;;6.57;;
75820;SDS011;64454;51.984;9.838;2022-12-24T07:03:26;18.83;;;6.00;;
75820;SDS011;64454;51.984;9.838;2022-12-24T07:05:53;13.93;;;6.32;;
75820;SDS011;64454;51.984;9.838;2022-12-24T07:08:20;16.45;;;5.80;;
75820;SDS011;64454;51.984;9.838;2022-12-24T07:10:47;19.17;;;6.00;;
75820;SDS011;64454;51.984;9.838;2022-12-24T07:13:16;17.77;;;5.10;;
75820;SDS011;64454;51.984;9.838;2022-12-24T07:15:43;16.02;;;4.90;;
75820;SDS011;64454;51.984;9.838;2022-12-24T07:18:10;15.95;;;5.50;;
75820;SDS011;64454;51.984;9.838;2022-12-24T07:20:37;23.90;;;6.50;;
75820;SDS011;64454;51.984;9.838;2022-12-24T07:23:04;18.48;;;6.00;;
75820;SDS011;64454;51.984;9.838;2022-12-24T07:25:31;13.32;;;6.07;;
75820;SDS011;64454;51.984;9.838;2022-12-24T07:27:58;15.37;;;6.70;;
75820;SDS011;64454;51.984;9.838;2022-12-24T07:30:26;15.80;;;6.00;;
75820;SDS011;64454;51.984;9.838;2022-12-24T07:32:53;13.70;;;5.90;;
75820;SDS011;64454;51.984;9.838;2022-12-24T07:35:19;17.20;;;5.80;;
75820;SDS011;64454;51.984;9.838;2022-12-24T07:37:46;16.65;;;5.60;;
75820;SDS011;64454;51.984;9.838;2022-12-24T07:40:13;13.07;;;5.60;;
75820;SDS011;64454;51.984;9.838;2022-12-24T07:42:40;20.42;;;7.22;;
75820;SDS011;64454;51.984;9.838;2022-12-24T07:45:07;19.02;;;6.13;;
75820;SDS011;64454;51.984;9.838;2022-12-24T07:47:36;19.75;;;6.50;;
75820;SDS011;64454;51.984;9.838;2022-12-24T07:50:03;17.83;;;5.57;;
75820;SDS011;64454;51.984;9.838;2022-12-24T07:52:32;16.43;;;5.87;;
75820;SDS011;64454;51.984;9.838;2022-12-24T07:54:58;14.60;;;6.15;;
75820;SDS011;64454;51.984;9.838;2022-12-24T07:57:25;19.85;;;5.40;;
75820;SDS011;64454;51.984;9.838;2022-12-24T07:59:52;17.17;;;6.50;;
75820;SDS011;64454;51.984;9.838;2022-12-24T08:02:19;17.48;;;6.70;;
75820;SDS011;64454;51.984;9.838;2022-12-24T08:04:47;13.50;;;5.38;;
75820;SDS011;64454;51.984;9.838;2022-12-24T08:07:14;20.47;;;6.73;;
75820;SDS011;64454;51.984;9.838;2022-12-24T08:09:40;13.30;;;5.60;;
75820;SDS011;64454;51.984;9.838;2022-12-24T08:12:09;18.15;;;7.40;;
75820;SDS011;64454;51.984;9.838;2022-12-24T08:14:36;13.02;;;5.78;;
75820;SDS011;64454;51.984;9.838;2022-12-24T08:17:03;15.98;;;6.15;;
75820;SDS011;64454;51.984;9.838;2022-12-24T08:19:30;16.95;;;6.38;;
75820;SDS011;64454;51.984;9.838;2022-12-24T08:21:58;17.80;;;7.30;;
75820;SDS011;64454;51.984;9.838;2022-12-24T08:24:25;18.75;;;7.20;;
75820;SDS011;64454;51.984;9.838;2022-12-24T08:26:51;21.00;;;6.55;;
75820;SDS011;64454;51.984;9.838;2022-12-24T08:29:18;22.02;;;6.30;;
75820;SDS011;64454;51.984;9.838;2022-12-24T08:31:45;20.60;;;8.18;;
75820;SDS011;64454;51.984;9.838;2022-12-24T08:34:12;18.55;;;7.05;;
75820;SDS011;64454;51.984;9.838;2022-12-24T08:36:39;15.25;;;6.90;;
75820;SDS011;64454;51.984;9.838;2022-12-24T08:39:07;22.33;;;7.33;;
75820;SDS011;64454;51.984;9.838;2022-12-24T08:41:35;16.52;;;7.32;;
75820;SDS011;64454;51.984;9.838;2022-12-24T08:44:02;19.30;;;7.70;;
75820;SDS011;64454;51.984;9.838;2022-12-24T08:46:29;19.40;;;7.63;;
75820;SDS011;64454;51.984;9.838;2022-12-24T08:48:56;21.77;;;7.78;;
75820;SDS011;64454;51.984;9.838;2022-12-24T08:51:23;18.73;;;7.70;;
75820;SDS011;64454;51.984;9.838;2022-12-24T08:53:49;17.30;;;8.50;;
75820;SDS011;64454;51.984;9.838;2022-12-24T08:56:18;18.50;;;7.82;;
75820;SDS011;64454;51.984;9.838;2022-12-24T08:58:44;17.38;;;7.63;;
75820;SDS011;64454;51.984;9.838;2022-12-24T09:01:13;18.17;;;8.60;;
75820;SDS011;64454;51.984;9.838;2022-12-24T09:03:43;18.05;;;8.02;;
75820;SDS011;64454;51.984;9.838;2022-12-24T09:06:10;22.27;;;7.90;;
75820;SDS011;64454;51.984;9.838;2022-12-24T09:08:38;16.23;;;6.85;;
75820;SDS011;64454;51.984;9.838;2022-12-24T09:11:05;16.05;;;7.20;;
75820;SDS011;64454;51.984;9.838;2022-12-24T09:13:35;14.85;;;6.90;;
75820;SDS011;64454;51.984;9.838;2022-12-24T09:16:03;14.93;;;7.07;;
75820;SDS011;64454;51.984;9.838;2022-12-24T09:18:32;15.20;;;7.55;;
75820;SDS011;64454;51.984;9.838;2022-12-24T09:20:59;14.38;;;6.40;;
75820;SDS011;64454;51.984;9.838;2022-12-24T09:23:27;18.38;;;7.50;;
75820;SDS011;64454;51.984;9.838;2022-12-24T09:25:55;20.30;;;7.00;;
75820;SDS011;64454;51.984;9.838;2022-12-24T09:28:22;17.45;;;7.43;;
75820;SDS011;64454;51.984;9.838;2022-12-24T09:30:58;13.73;;;7.40;;
75820;SDS011;64454;51.984;9.838;2022-12-24T09:33:28;16.00;;;7.18;;
75820;SDS011;64454;51.984;9.838;2022-12-24T09:35:58;13.82;;;6.50;;
75820;SDS011;64454;51.984;9.838;2022-12-24T09:38:25;16.52;;;6.85;;
75820;SDS011;64454;51.984;9.838;2022-12-24T09:40:53;11.00;;;5.25;;
75820;SDS011;64454;51.984;9.838;2022-12-24T09:43:21;13.02;;;6.28;;
75820;SDS011;64454;51.984;9.838;2022-12-24T09:45:54;10.20;;;4.97;;
75820;SDS011;64454;51.984;9.838;2022-12-24T09:48:38;19.23;;;5.32;;
75820;SDS011;64454;51.984;9.838;2022-12-24T09:51:14;9.35;;;4.30;;
75820;SDS011;64454;51.984;9.838;2022-12-24T09:53:51;8.60;;;4.25;;
75820;SDS011;64454;51.984;9.838;2022-12-24T09:56:26;9.50;;;4.05;;
75820;SDS011;64454;51.984;9.838;2022-12-24T09:58:57;7.13;;;3.50;;
75820;SDS011;64454;51.984;9.838;2022-12-24T10:01:29;6.50;;;3.50;;
75820;SDS011;64454;51.984;9.838;2022-12-24T10:04:01;10.40;;;4.30;;
75820;SDS011;64454;51.984;9.838;2022-12-24T10:06:35;6.43;;;3.50;;
75820;SDS011;64454;51.984;9.838;2022-12-24T10:09:10;6.70;;;3.85;;
75820;SDS011;64454;51.984;9.838;2022-12-24T10:11:52;9.07;;;3.50;;
75820;SDS011;64454;51.984;9.838;2022-12-24T10:14:32;7.65;;;3.63;;
75820;SDS011;64454;51.984;9.838;2022-12-24T10:17:28;8.38;;;4.05;;
75820;SDS011;64454;51.984;9.838;2022-12-24T10:20:27;6.88;;;3.40;;
75820;SDS011;64454;51.984;9.838;2022-12-24T10:23:10;7.78;;;3.50;;
75820;SDS011;64454;51.984;9.838;2022-12-24T10:25:55;5.15;;;3.65;;
75820;SDS011;64454;51.984;9.838;2022-12-24T10:28:41;5.93;;;3.45;;
75820;SDS011;64454;51.984;9.838;2022-12-24T10:31:13;8.07;;;3.60;;
75820;SDS011;64454;51.984;9.838;2022-12-24T10:33:42;5.70;;;3.80;;
75820;SDS011;64454;51.984;9.838;2022-12-24T10:36:16;4.07;;;3.67;;
75820;SDS011;64454;51.984;9.838;2022-12-24T10:38:48;6.10;;;4.10;;
75820;SDS011;64454;51.984;9.838;2022-12-24T10:41:16;6.37;;;4.00;;
75820;SDS011;64454;51.984;9.838;2022-12-24T10:43:43;6.65;;;3.60;;
75820;SDS011;64454;51.984;9.838;2022-12-24T10:46:14;6.63;;;4.07;;
75820;SDS011;64454;51.984;9.838;2022-12-24T10:48:49;6.33;;;3.70;;
75820;SDS011;64454;51.984;9.838;2022-12-24T10:51:21;6.87;;;3.80;;
75820;SDS011;64454;51.984;9.838;2022-12-24T10:53:59;7.38;;;4.00;;
75820;SDS011;64454;51.984;9.838;2022-12-24T10:56:37;6.20;;;3.45;;
75820;SDS011;64454;51.984;9.838;2022-12-24T10:59:08;4.40;;;3.00;;
75820;SDS011;64454;51.984;9.838;2022-12-24T11:01:50;6.63;;;2.80;;
75820;SDS011;64454;51.984;9.838;2022-12-24T11:04:20;5.88;;;3.00;;
75820;SDS011;64454;51.984;9.838;2022-12-24T11:06:50;5.93;;;3.63;;
75820;SDS011;64454;51.984;9.838;2022-12-24T11:09:20;5.93;;;3.40;;
75820;SDS011;64454;51.984;9.838;2022-12-24T11:11:50;5.22;;;3.47;;
75820;SDS011;64454;51.984;9.838;2022-12-24T11:14:17;5.53;;;3.20;;
75820;SDS011;64454;51.984;9.838;2022-12-24T11:16:50;8.13;;;3.97;;
75820;SDS011;64454;51.984;9.838;2022-12-24T11:19:25;6.80;;;3.20;;
75820;SDS011;64454;51.984;9.838;2022-12-24T11:22:00;6.60;;;4.00;;
75820;SDS011;64454;51.984;9.838;2022-12-24T11:24:31;5.00;;;3.42;;
75820;SDS011;64454;51.984;9.838;2022-12-24T11:33:13;7.82;;;4.25;;
75820;SDS011;64454;51.984;9.838;2022-12-24T11:35:48;8.32;;;5.53;;
75820;SDS011;64454;51.984;9.838;2022-12-24T11:38:23;10.60;;;5.05;;
75820;SDS011;64454;51.984;9.838;2022-12-24T11:41:02;12.85;;;6.22;;
75820;SDS011;64454;51.984;9.838;2022-12-24T11:43:39;15.47;;;7.20;;
75820;SDS011;64454;51.984;9.838;2022-12-24T11:46:13;14.00;;;6.88;;
75820;SDS011;64454;51.984;9.838;2022-12-24T11:49:06;15.40;;;7.90;;
75820;SDS011;64454;51.984;9.838;2022-12-24T11:51:56;14.35;;;7.35;;
75820;SDS011;64454;51.984;9.838;2022-12-24T11:54:39;11.68;;;6.32;;
75820;SDS011;64454;51.984;9.838;2022-12-24T11:57:23;16.00;;;7.10;;
75820;SDS011;64454;51.984;9.838;2022-12-24T11:59:56;16.27;;;6.10;;
75820;SDS011;64454;51.984;9.838;2022-12-24T12:02:24;12.40;;;7.10;;
75820;SDS011;64454;51.984;9.838;2022-12-24T12:04:58;12.45;;;6.55;;
75820;SDS011;64454;51.984;9.838;2022-12-24T12:07:32;14.20;;;6.40;;
75820;SDS011;64454;51.984;9.838;2022-12-24T12:10:03;16.67;;;6.78;;
75820;SDS011;64454;51.984;9.838;2022-12-24T12:12:40;14.70;;;6.80;;
75820;SDS011;64454;51.984;9.838;2022-12-24T12:15:10;14.63;;;7.30;;
75820;SDS011;64454;51.984;9.838;2022-12-24T12:17:43;15.80;;;6.78;;
75820;SDS011;64454;51.984;9.838;2022-12-24T12:20:15;14.15;;;7.15;;
75820;SDS011;64454;51.984;9.838;2022-12-24T12:22:49;15.20;;;7.60;;
75820;SDS011;64454;51.984;9.838;2022-12-24T12:25:26;14.67;;;7.27;;
75820;SDS011;64454;51.984;9.838;2022-12-24T12:28:07;14.57;;;6.30;;
75820;SDS011;64454;51.984;9.838;2022-12-24T12:30:45;17.57;;;6.87;;
75820;SDS011;64454;51.984;9.838;2022-12-24T12:33:29;14.25;;;7.30;;
75820;SDS011;64454;51.984;9.838;2022-12-24T12:36:04;15.47;;;6.53;;
75820;SDS011;64454;51.984;9.838;2022-12-24T12:38:36;16.25;;;7.70;;
75820;SDS011;64454;51.984;9.838;2022-12-24T12:41:12;12.85;;;6.30;;
75820;SDS011;64454;51.984;9.838;2022-12-24T12:44:19;10.90;;;6.53;;
75820;SDS011;64454;51.984;9.838;2022-12-24T12:47:13;11.77;;;6.43;;
75820;SDS011;64454;51.984;9.838;2022-12-24T12:49:59;13.63;;;6.97;;
75820;SDS011;64454;51.984;9.838;2022-12-24T12:55:57;12.30;;;6.47;;
75820;SDS011;64454;51.984;9.838;2022-12-24T12:58:40;14.65;;;6.88;;
75820;SDS011;64454;51.984;9.838;2022-12-24T13:01:16;16.48;;;6.72;;
75820;SDS011;64454;51.984;9.838;2022-12-24T13:03:53;13.07;;;6.22;;
75820;SDS011;64454;51.984;9.838;2022-12-24T13:07:14;13.53;;;6.37;;
75820;SDS011;64454;51.984;9.838;2022-12-24T13:10:14;10.20;;;5.68;;
75820;SDS011;64454;51.984;9.838;2022-12-24T13:13:01;13.77;;;6.50;;
75820;SDS011;64454;51.984;9.838;2022-12-24T13:16:03;16.23;;;5.70;;
75820;SDS011;64454;51.984;9.838;2022-12-24T13:18:54;12.27;;;5.50;;
75820;SDS011;64454;51.984;9.838;2022-12-24T13:21:32;15.02;;;5.90;;
75820;SDS011;64454;51.984;9.838;2022-12-24T13:24:03;14.77;;;5.60;;
75820;SDS011;64454;51.984;9.838;2022-12-24T13:26:32;12.98;;;5.85;;
75820;SDS011;64454;51.984;9.838;2022-12-24T13:35:26;13.80;;;6.15;;
75820;SDS011;64454;51.984;9.838;2022-12-24T13:44:15;17.52;;;8.88;;
75820;SDS011;64454;51.984;9.838;2022-12-24T13:46:58;11.30;;;6.25;;
75820;SDS011;64454;51.984;9.838;2022-12-24T13:49:45;14.50;;;6.53;;
75820;SDS011;64454;51.984;9.838;2022-12-24T13:52:21;11.88;;;6.93;;
75820;SDS011;64454;51.984;9.838;2022-12-24T13:55:03;14.93;;;7.53;;
75820;SDS011;64454;51.984;9.838;2022-12-24T13:57:42;16.70;;;6.90;;
75820;SDS011;64454;51.984;9.838;2022-12-24T14:03:17;14.45;;;6.65;;
75820;SDS011;64454;51.984;9.838;2022-12-24T14:05:53;16.48;;;6.95;;
75820;SDS011;64454;51.984;9.838;2022-12-24T14:08:26;13.70;;;6.67;;
75820;SDS011;64454;51.984;9.838;2022-12-24T14:11:10;11.88;;;5.93;;
75820;SDS011;64454;51.984;9.838;2022-12-24T14:16:52;11.68;;;6.55;;
75820;SDS011;64454;51.984;9.838;2022-12-24T14:19:27;16.48;;;7.32;;
75820;SDS011;64454;51.984;9.838;2022-12-24T14:22:04;13.10;;;6.40;;
75820;SDS011;64454;51.984;9.838;2022-12-24T14:24:50;17.43;;;6.87;;
75820;SDS011;64454;51.984;9.838;2022-12-24T14:27:23;12.60;;;6.45;;
75820;SDS011;64454;51.984;9.838;2022-12-24T14:29:58;18.25;;;7.60;;
75820;SDS011;64454;51.984;9.838;2022-12-24T14:32:33;15.48;;;6.70;;
75820;SDS011;64454;51.984;9.838;2022-12-24T14:35:08;12.20;;;7.00;;
75820;SDS011;64454;51.984;9.838;2022-12-24T14:37:41;15.02;;;6.45;;
75820;SDS011;64454;51.984;9.838;2022-12-24T14:40:14;18.05;;;6.93;;
75820;SDS011;64454;51.984;9.838;2022-12-24T14:42:45;14.40;;;6.68;;
75820;SDS011;64454;51.984;9.838;2022-12-24T14:45:25;13.00;;;6.22;;
75820;SDS011;64454;51.984;9.838;2022-12-24T14:48:00;10.55;;;6.03;;
75820;SDS011;64454;51.984;9.838;2022-12-24T14:50:47;13.43;;;6.90;;
75820;SDS011;64454;51.984;9.838;2022-12-24T14:53:32;12.80;;;6.40;;
75820;SDS011;64454;51.984;9.838;2022-12-24T14:56:29;17.02;;;6.80;;
75820;SDS011;64454;51.984;9.838;2022-12-24T14:58:56;13.55;;;6.90;;
75820;SDS011;64454;51.984;9.838;2022-12-24T15:01:29;17.52;;;7.13;;
75820;SDS011;64454;51.984;9.838;2022-12-24T15:03:58;14.98;;;6.72;;
75820;SDS011;64454;51.984;9.838;2022-12-24T15:06:30;14.98;;;7.10;;
75820;SDS011;64454;51.984;9.838;2022-12-24T15:09:01;16.20;;;6.50;;
75820;SDS011;64454;51.984;9.838;2022-12-24T15:11:28;14.57;;;6.53;;
75820;SDS011;64454;51.984;9.838;2022-12-24T15:13:56;18.98;;;7.40;;
75820;SDS011;64454;51.984;9.838;2022-12-24T15:16:25;16.25;;;6.95;;
75820;SDS011;64454;51.984;9.838;2022-12-24T15:18:58;15.55;;;7.32;;
75820;SDS011;64454;51.984;9.838;2022-12-24T15:21:31;16.50;;;6.80;;
75820;SDS011;64454;51.984;9.838;2022-12-24T15:24:17;19.43;;;7.40;;
75820;SDS011;64454;51.984;9.838;2022-12-24T15:26:50;19.65;;;7.03;;
75820;SDS011;64454;51.984;9.838;2022-12-24T15:29:20;15.90;;;6.72;;
75820;SDS011;64454;51.984;9.838;2022-12-24T15:31:52;20.35;;;7.43;;
75820;SDS011;64454;51.984;9.838;2022-12-24T15:34:24;13.00;;;7.67;;
75820;SDS011;64454;51.984;9.838;2022-12-24T15:37:00;15.70;;;7.00;;
75820;SDS011;64454;51.984;9.838;2022-12-24T15:39:31;16.02;;;7.47;;
75820;SDS011;64454;51.984;9.838;2022-12-24T15:41:59;20.60;;;7.53;;